OAL320 ENAT-ENSB
Flight info
| Callsign | OAL320 |
|---|---|
| Flight time | 1h 22m |
| Altitude | 38000 |
| Route | ELSEV DCT UVSAS DCT PITOL DCT INPAR DCT LALAD |
| Aircraft | A20N/M-SDE2E3FGHIRWXY/LB1 |
Departure
| Time | 2026-04-28 16:00 |
|---|---|
| Airport | Alta Airport (ENAT) |
Arrival
| Time | 2026-04-28 17:23 |
|---|---|
| Airport | Svalbard Airport, Longyear (ENSB) |
| Time | Latitude | Longitude | Altitude | Speed | Heading |
|---|---|---|---|---|---|
| 2026-04-28 15:38 | 69.97835 | 23.34738 | 18 ft | 0 kts | 211° |
| 2026-04-28 15:49 | 69.97844 | 23.34753 | 18 ft | 1 kts | 211° |
| 2026-04-28 15:49 | 69.97850 | 23.34764 | 20 ft | 1 kts | 211° |
| 2026-04-28 15:50 | 69.97857 | 23.34776 | 19 ft | 1 kts | 211° |
| 2026-04-28 15:50 | 69.97863 | 23.34788 | 20 ft | 1 kts | 211° |
| 2026-04-28 15:50 | 69.97870 | 23.34799 | 21 ft | 1 kts | 211° |
| 2026-04-28 15:50 | 69.97877 | 23.34811 | 21 ft | 1 kts | 211° |
| 2026-04-28 15:51 | 69.97883 | 23.34822 | 21 ft | 1 kts | 211° |
| 2026-04-28 15:51 | 69.97890 | 23.34834 | 23 ft | 1 kts | 203° |
| 2026-04-28 15:51 | 69.97897 | 23.34842 | 22 ft | 1 kts | 178° |
| 2026-04-28 15:51 | 69.97905 | 23.34839 | 22 ft | 1 kts | 149° |
| 2026-04-28 15:52 | 69.97911 | 23.34826 | 21 ft | 1 kts | 124° |
| 2026-04-28 15:52 | 69.97911 | 23.34825 | 21 ft | 0 kts | 122° |
| 2026-04-28 15:53 | 69.97908 | 23.34839 | 22 ft | 3 kts | 122° |
| 2026-04-28 15:53 | 69.97890 | 23.34927 | 21 ft | 7 kts | 121° |
| 2026-04-28 15:53 | 69.97865 | 23.35074 | 18 ft | 9 kts | 99° |
| 2026-04-28 15:54 | 69.97882 | 23.35257 | 20 ft | 8 kts | 64° |
| 2026-04-28 15:54 | 69.97889 | 23.35281 | 18 ft | 0 kts | 49° |
| 2026-04-28 15:54 | 69.97892 | 23.35293 | 18 ft | 3 kts | 49° |
| 2026-04-28 15:55 | 69.97926 | 23.35365 | 19 ft | 8 kts | 33° |
| 2026-04-28 15:55 | 69.97948 | 23.35527 | 19 ft | 11 kts | 106° |
| 2026-04-28 15:55 | 69.97902 | 23.35754 | 17 ft | 15 kts | 121° |
| 2026-04-28 15:55 | 69.97843 | 23.36044 | 18 ft | 19 kts | 120° |
| 2026-04-28 15:56 | 69.97771 | 23.36385 | 17 ft | 21 kts | 123° |
| 2026-04-28 15:56 | 69.97704 | 23.36710 | 19 ft | 18 kts | 121° |
| 2026-04-28 15:56 | 69.97636 | 23.37041 | 19 ft | 21 kts | 121° |
| 2026-04-28 15:56 | 69.97570 | 23.37360 | 18 ft | 16 kts | 121° |
| 2026-04-28 15:57 | 69.97510 | 23.37651 | 21 ft | 17 kts | 121° |
| 2026-04-28 15:57 | 69.97446 | 23.37961 | 21 ft | 17 kts | 121° |
| 2026-04-28 15:57 | 69.97386 | 23.38251 | 18 ft | 15 kts | 121° |
| 2026-04-28 15:57 | 69.97331 | 23.38510 | 18 ft | 16 kts | 121° |
| 2026-04-28 15:58 | 69.97285 | 23.38731 | 19 ft | 12 kts | 120° |
| 2026-04-28 15:58 | 69.97242 | 23.38881 | 20 ft | 8 kts | 146° |
| 2026-04-28 15:58 | 69.97245 | 23.38954 | 20 ft | 3 kts | 1° |
| 2026-04-28 15:58 | 69.97254 | 23.38890 | 20 ft | 5 kts | 285° |
| 2026-04-28 15:59 | 69.97265 | 23.38830 | 21 ft | 0 kts | 299° |
| 2026-04-28 15:59 | 69.97267 | 23.38819 | 19 ft | 7 kts | 302° |
| 2026-04-28 15:59 | 69.97414 | 23.38126 | 19 ft | 65 kts | 293° |
| 2026-04-28 15:59 | 69.97756 | 23.36456 | 18 ft | 125 kts | 301° |
| 2026-04-28 16:00 | 69.98274 | 23.33948 | 234 ft | 150 kts | 302° |
| 2026-04-28 16:00 | 69.98925 | 23.31497 | 730 ft | 160 kts | 315° |
| 2026-04-28 16:00 | 69.99852 | 23.29506 | 1240 ft | 170 kts | 326° |
| 2026-04-28 16:00 | 70.00831 | 23.27463 | 1793 ft | 178 kts | 322° |
| 2026-04-28 16:01 | 70.01861 | 23.25140 | 2184 ft | 197 kts | 321° |
| 2026-04-28 16:01 | 70.02997 | 23.22558 | 2589 ft | 217 kts | 321° |
| 2026-04-28 16:01 | 70.04249 | 23.19704 | 3065 ft | 240 kts | 321° |
| 2026-04-28 16:01 | 70.05609 | 23.16594 | 3712 ft | 261 kts | 321° |
| 2026-04-28 16:02 | 70.07058 | 23.13270 | 4668 ft | 267 kts | 321° |
| 2026-04-28 16:02 | 70.08529 | 23.09890 | 5713 ft | 271 kts | 321° |
| 2026-04-28 16:02 | 70.10026 | 23.06450 | 6732 ft | 275 kts | 321° |
| 2026-04-28 16:02 | 70.11543 | 23.02954 | 7733 ft | 279 kts | 321° |
| 2026-04-28 16:03 | 70.13085 | 22.99396 | 8718 ft | 284 kts | 321° |
| 2026-04-28 16:03 | 70.14648 | 22.95785 | 9684 ft | 288 kts | 321° |
| 2026-04-28 16:03 | 70.16241 | 22.92097 | 10525 ft | 298 kts | 321° |
| 2026-04-28 16:03 | 70.18070 | 22.88738 | 10922 ft | 323 kts | 332° |
| 2026-04-28 16:04 | 70.20136 | 22.85598 | 11355 ft | 342 kts | 333° |
| 2026-04-28 16:04 | 70.22282 | 22.82420 | 12192 ft | 348 kts | 333° |
| 2026-04-28 16:04 | 70.24456 | 22.79195 | 13056 ft | 352 kts | 333° |
| 2026-04-28 16:04 | 70.26653 | 22.75910 | 13894 ft | 356 kts | 333° |
| 2026-04-28 16:05 | 70.28876 | 22.72562 | 14708 ft | 361 kts | 332° |
| 2026-04-28 16:05 | 70.31129 | 22.69149 | 15501 ft | 365 kts | 332° |
| 2026-04-28 16:05 | 70.33401 | 22.65692 | 16258 ft | 370 kts | 332° |
| 2026-04-28 16:05 | 70.35700 | 22.62182 | 17000 ft | 374 kts | 332° |
| 2026-04-28 16:06 | 70.38026 | 22.58622 | 17729 ft | 378 kts | 332° |
| 2026-04-28 16:06 | 70.40376 | 22.55014 | 18427 ft | 382 kts | 332° |
| 2026-04-28 16:06 | 70.42748 | 22.51364 | 19104 ft | 386 kts | 332° |
| 2026-04-28 16:06 | 70.45148 | 22.47659 | 19768 ft | 390 kts | 332° |
| 2026-04-28 16:07 | 70.47573 | 22.43908 | 20417 ft | 394 kts | 332° |
| 2026-04-28 16:07 | 70.50016 | 22.40117 | 21054 ft | 398 kts | 332° |
| 2026-04-28 16:07 | 70.54971 | 22.32397 | 22269 ft | 405 kts | 332° |
| 2026-04-28 16:08 | 70.57485 | 22.28465 | 22856 ft | 409 kts | 332° |
| 2026-04-28 16:08 | 70.60019 | 22.24489 | 23426 ft | 413 kts | 332° |
| 2026-04-28 16:08 | 70.62573 | 22.20471 | 23982 ft | 416 kts | 332° |
| 2026-04-28 16:09 | 70.67746 | 22.12296 | 25049 ft | 423 kts | 332° |
| 2026-04-28 16:09 | 70.70327 | 22.08199 | 25544 ft | 426 kts | 332° |
| 2026-04-28 16:09 | 70.72966 | 22.03998 | 26031 ft | 430 kts | 332° |
| 2026-04-28 16:10 | 70.78292 | 21.95480 | 26951 ft | 436 kts | 332° |
| 2026-04-28 16:10 | 70.80981 | 21.91161 | 27394 ft | 439 kts | 332° |
| 2026-04-28 16:10 | 70.86414 | 21.82392 | 28213 ft | 445 kts | 332° |
| 2026-04-28 16:11 | 70.91912 | 21.73463 | 28982 ft | 450 kts | 332° |
| 2026-04-28 16:11 | 70.97466 | 21.64385 | 29681 ft | 455 kts | 331° |
| 2026-04-28 16:12 | 71.03080 | 21.55149 | 30382 ft | 460 kts | 331° |
| 2026-04-28 16:12 | 71.05908 | 21.50474 | 30716 ft | 463 kts | 331° |
| 2026-04-28 16:13 | 71.11598 | 21.41020 | 31458 ft | 465 kts | 331° |
| 2026-04-28 16:13 | 71.14446 | 21.36264 | 31901 ft | 464 kts | 331° |
| 2026-04-28 16:13 | 71.20115 | 21.26750 | 32756 ft | 463 kts | 331° |
| 2026-04-28 16:14 | 71.25760 | 21.17214 | 33551 ft | 461 kts | 331° |
| 2026-04-28 16:14 | 71.31376 | 21.07662 | 34288 ft | 459 kts | 331° |
| 2026-04-28 16:15 | 71.36937 | 20.98141 | 34978 ft | 458 kts | 331° |
| 2026-04-28 16:15 | 71.39726 | 20.93341 | 35306 ft | 457 kts | 331° |
| 2026-04-28 16:15 | 71.42546 | 20.88472 | 35623 ft | 457 kts | 330° |
| 2026-04-28 16:16 | 71.48062 | 20.78903 | 36211 ft | 455 kts | 330° |
| 2026-04-28 16:16 | 71.50834 | 20.74069 | 36470 ft | 455 kts | 330° |
| 2026-04-28 16:17 | 71.56371 | 20.64367 | 36955 ft | 455 kts | 330° |
| 2026-04-28 16:17 | 71.59140 | 20.59490 | 37185 ft | 455 kts | 330° |
| 2026-04-28 16:17 | 71.61903 | 20.54606 | 37412 ft | 455 kts | 330° |
| 2026-04-28 16:17 | 71.64668 | 20.49704 | 37627 ft | 455 kts | 330° |
| 2026-04-28 16:18 | 71.67430 | 20.44791 | 37835 ft | 455 kts | 330° |
| 2026-04-28 16:18 | 71.70191 | 20.39862 | 38000 ft | 456 kts | 330° |
| 2026-04-28 16:18 | 71.75711 | 20.29960 | 38000 ft | 454 kts | 330° |
| 2026-04-28 16:19 | 71.81211 | 20.20026 | 38000 ft | 454 kts | 330° |
| 2026-04-28 16:19 | 71.85776 | 20.11728 | 38000 ft | 454 kts | 330° |
| 2026-04-28 16:20 | 71.91266 | 20.01688 | 38000 ft | 454 kts | 330° |
| 2026-04-28 16:20 | 71.96752 | 19.91588 | 38000 ft | 454 kts | 330° |
| 2026-04-28 16:21 | 72.02233 | 19.81428 | 38001 ft | 454 kts | 330° |
| 2026-04-28 16:21 | 72.07799 | 19.71761 | 38000 ft | 454 kts | 337° |
| 2026-04-28 16:22 | 72.13815 | 19.65549 | 37998 ft | 454 kts | 345° |
| 2026-04-28 16:22 | 72.19910 | 19.60075 | 37998 ft | 454 kts | 344° |
| 2026-04-28 16:23 | 72.26011 | 19.54629 | 37999 ft | 455 kts | 345° |
| 2026-04-28 16:23 | 72.32118 | 19.49246 | 38000 ft | 455 kts | 345° |
| 2026-04-28 16:24 | 72.38232 | 19.43835 | 38001 ft | 455 kts | 345° |
| 2026-04-28 16:24 | 72.44343 | 19.38378 | 38002 ft | 455 kts | 344° |
| 2026-04-28 16:25 | 72.50454 | 19.32880 | 38002 ft | 455 kts | 344° |
| 2026-04-28 16:25 | 72.56523 | 19.27380 | 38003 ft | 455 kts | 344° |
| 2026-04-28 16:26 | 72.62627 | 19.21811 | 38003 ft | 455 kts | 344° |
| 2026-04-28 16:26 | 72.68742 | 19.16192 | 38003 ft | 455 kts | 344° |
| 2026-04-28 16:27 | 72.74849 | 19.10540 | 38003 ft | 455 kts | 344° |
| 2026-04-28 16:28 | 72.84000 | 19.01995 | 38003 ft | 455 kts | 344° |
| 2026-04-28 16:28 | 72.90101 | 18.96247 | 38002 ft | 455 kts | 344° |
| 2026-04-28 16:29 | 72.99251 | 18.87549 | 38001 ft | 455 kts | 344° |
| 2026-04-28 16:30 | 73.08385 | 18.78771 | 38001 ft | 455 kts | 344° |
| 2026-04-28 16:30 | 73.14474 | 18.72866 | 38001 ft | 455 kts | 344° |
| 2026-04-28 16:31 | 73.20523 | 18.66957 | 38000 ft | 455 kts | 344° |
| 2026-04-28 16:31 | 73.26607 | 18.60970 | 38000 ft | 454 kts | 343° |
| 2026-04-28 16:32 | 73.32690 | 18.54940 | 38000 ft | 454 kts | 343° |
| 2026-04-28 16:32 | 73.41811 | 18.45814 | 37999 ft | 454 kts | 343° |
| 2026-04-28 16:33 | 73.46859 | 18.40721 | 37999 ft | 454 kts | 343° |
| 2026-04-28 16:33 | 73.53963 | 18.33498 | 37999 ft | 454 kts | 343° |
| 2026-04-28 16:34 | 73.60035 | 18.27274 | 38000 ft | 455 kts | 343° |
| 2026-04-28 16:34 | 73.66107 | 18.21004 | 38000 ft | 455 kts | 343° |
| 2026-04-28 16:35 | 73.72178 | 18.14687 | 38000 ft | 455 kts | 343° |
| 2026-04-28 16:35 | 73.78252 | 18.08320 | 38000 ft | 455 kts | 343° |
| 2026-04-28 16:36 | 73.84320 | 18.01910 | 38001 ft | 455 kts | 343° |
| 2026-04-28 16:36 | 73.90387 | 17.95452 | 38001 ft | 455 kts | 343° |
| 2026-04-28 16:37 | 73.96451 | 17.88948 | 38001 ft | 455 kts | 343° |
| 2026-04-28 16:38 | 74.05504 | 17.79144 | 38001 ft | 455 kts | 343° |
| 2026-04-28 16:38 | 74.11564 | 17.72518 | 38002 ft | 455 kts | 343° |
| 2026-04-28 16:39 | 74.17625 | 17.65838 | 38001 ft | 455 kts | 343° |
| 2026-04-28 16:39 | 74.23680 | 17.59114 | 38001 ft | 455 kts | 343° |
| 2026-04-28 16:40 | 74.29737 | 17.52334 | 38001 ft | 455 kts | 342° |
| 2026-04-28 16:40 | 74.35787 | 17.45508 | 38001 ft | 455 kts | 342° |
| 2026-04-28 16:41 | 74.41836 | 17.38630 | 38001 ft | 455 kts | 342° |
| 2026-04-28 16:41 | 74.47882 | 17.31699 | 38001 ft | 455 kts | 342° |
| 2026-04-28 16:42 | 74.53929 | 17.24713 | 38000 ft | 455 kts | 342° |
| 2026-04-28 16:42 | 74.59971 | 17.17676 | 38001 ft | 455 kts | 342° |
| 2026-04-28 16:43 | 74.66009 | 17.10587 | 38000 ft | 455 kts | 342° |
| 2026-04-28 16:43 | 74.72047 | 17.03441 | 38000 ft | 455 kts | 342° |
| 2026-04-28 16:44 | 74.78042 | 16.96289 | 38001 ft | 455 kts | 342° |
| 2026-04-28 16:44 | 74.84114 | 16.88985 | 38000 ft | 455 kts | 342° |
| 2026-04-28 16:45 | 74.90105 | 16.81720 | 38000 ft | 454 kts | 342° |
| 2026-04-28 16:45 | 74.96136 | 16.74347 | 38000 ft | 454 kts | 342° |
| 2026-04-28 16:46 | 75.02157 | 16.66924 | 38000 ft | 455 kts | 342° |
| 2026-04-28 16:46 | 75.08182 | 16.59436 | 38000 ft | 455 kts | 342° |
| 2026-04-28 16:47 | 75.14203 | 16.51889 | 38000 ft | 455 kts | 342° |
| 2026-04-28 16:47 | 75.20220 | 16.44285 | 38001 ft | 455 kts | 341° |
| 2026-04-28 16:48 | 75.26236 | 16.36618 | 38001 ft | 455 kts | 341° |
| 2026-04-28 16:48 | 75.32248 | 16.28892 | 38001 ft | 455 kts | 341° |
| 2026-04-28 16:49 | 75.38264 | 16.21094 | 38000 ft | 455 kts | 341° |
| 2026-04-28 16:49 | 75.44272 | 16.13241 | 38001 ft | 455 kts | 341° |
| 2026-04-28 16:50 | 75.50277 | 16.05324 | 38001 ft | 455 kts | 341° |
| 2026-04-28 16:50 | 75.56278 | 15.97346 | 38001 ft | 455 kts | 341° |
| 2026-04-28 16:51 | 75.62278 | 15.89299 | 38001 ft | 455 kts | 341° |
| 2026-04-28 16:51 | 75.68275 | 15.81187 | 38001 ft | 455 kts | 341° |
| 2026-04-28 16:52 | 75.74270 | 15.73008 | 38001 ft | 455 kts | 341° |
| 2026-04-28 16:52 | 75.80220 | 15.64819 | 38001 ft | 455 kts | 341° |
| 2026-04-28 16:53 | 75.86214 | 15.56496 | 38000 ft | 455 kts | 341° |
| 2026-04-28 16:53 | 75.92198 | 15.48115 | 38001 ft | 454 kts | 341° |
| 2026-04-28 16:54 | 75.98183 | 15.39658 | 38001 ft | 454 kts | 341° |
| 2026-04-28 16:54 | 76.04163 | 15.31132 | 38000 ft | 454 kts | 340° |
| 2026-04-28 16:55 | 76.10139 | 15.22537 | 38001 ft | 454 kts | 340° |
| 2026-04-28 16:55 | 76.16112 | 15.13871 | 38001 ft | 454 kts | 340° |
| 2026-04-28 16:56 | 76.22087 | 15.05147 | 38000 ft | 454 kts | 340° |
| 2026-04-28 16:56 | 76.28053 | 14.96370 | 38001 ft | 454 kts | 340° |
| 2026-04-28 16:57 | 76.34023 | 14.88191 | 37950 ft | 453 kts | 348° |
| 2026-04-28 16:57 | 76.37125 | 14.86020 | 37658 ft | 451 kts | 351° |
| 2026-04-28 16:57 | 76.40220 | 14.84002 | 37120 ft | 450 kts | 351° |
| 2026-04-28 16:57 | 76.43313 | 14.81941 | 36470 ft | 449 kts | 351° |
| 2026-04-28 16:58 | 76.46442 | 14.79849 | 35777 ft | 449 kts | 351° |
| 2026-04-28 16:58 | 76.49492 | 14.77812 | 35041 ft | 451 kts | 351° |
| 2026-04-28 16:58 | 76.52597 | 14.75736 | 34266 ft | 452 kts | 351° |
| 2026-04-28 16:58 | 76.55711 | 14.73649 | 33480 ft | 454 kts | 351° |
| 2026-04-28 16:59 | 76.58830 | 14.71552 | 32874 ft | 453 kts | 351° |
| 2026-04-28 16:59 | 76.61953 | 14.69441 | 32548 ft | 458 kts | 351° |
| 2026-04-28 16:59 | 76.65124 | 14.67289 | 32298 ft | 463 kts | 351° |
| 2026-04-28 16:59 | 76.68305 | 14.65121 | 32048 ft | 463 kts | 351° |
| 2026-04-28 17:00 | 76.71481 | 14.62944 | 31800 ft | 462 kts | 351° |
| 2026-04-28 17:00 | 76.74663 | 14.60754 | 31549 ft | 462 kts | 351° |
| 2026-04-28 17:00 | 76.77841 | 14.58555 | 31296 ft | 463 kts | 351° |
| 2026-04-28 17:00 | 76.81022 | 14.56344 | 31052 ft | 463 kts | 351° |
| 2026-04-28 17:01 | 76.84209 | 14.54118 | 30800 ft | 464 kts | 351° |
| 2026-04-28 17:01 | 76.87397 | 14.51881 | 30537 ft | 463 kts | 351° |
| 2026-04-28 17:01 | 76.90574 | 14.49640 | 29923 ft | 464 kts | 351° |
| 2026-04-28 17:01 | 76.93755 | 14.47386 | 29317 ft | 461 kts | 351° |
| 2026-04-28 17:02 | 76.96900 | 14.45146 | 28704 ft | 456 kts | 351° |
| 2026-04-28 17:02 | 76.98967 | 14.43669 | 28300 ft | 453 kts | 351° |
| 2026-04-28 17:02 | 77.03095 | 14.40704 | 27463 ft | 446 kts | 351° |
| 2026-04-28 17:02 | 77.06147 | 14.38499 | 26889 ft | 441 kts | 350° |
| 2026-04-28 17:03 | 77.12135 | 14.34143 | 25684 ft | 431 kts | 350° |
| 2026-04-28 17:03 | 77.15083 | 14.31983 | 25096 ft | 427 kts | 350° |
| 2026-04-28 17:03 | 77.17998 | 14.29839 | 24507 ft | 422 kts | 350° |
| 2026-04-28 17:04 | 77.23733 | 14.25589 | 23341 ft | 414 kts | 350° |
| 2026-04-28 17:04 | 77.26562 | 14.23480 | 22767 ft | 410 kts | 350° |
| 2026-04-28 17:05 | 77.32128 | 14.19302 | 21623 ft | 402 kts | 350° |
| 2026-04-28 17:05 | 77.34869 | 14.17230 | 21084 ft | 397 kts | 350° |
| 2026-04-28 17:05 | 77.37578 | 14.15174 | 20519 ft | 393 kts | 350° |
| 2026-04-28 17:06 | 77.42922 | 14.11092 | 19403 ft | 386 kts | 350° |
| 2026-04-28 17:06 | 77.45556 | 14.09068 | 18848 ft | 382 kts | 350° |
| 2026-04-28 17:06 | 77.50727 | 14.05070 | 17751 ft | 376 kts | 350° |
| 2026-04-28 17:07 | 77.53294 | 14.03072 | 17204 ft | 373 kts | 350° |
| 2026-04-28 17:07 | 77.55841 | 14.01082 | 16664 ft | 369 kts | 350° |
| 2026-04-28 17:07 | 77.58365 | 13.99102 | 16120 ft | 366 kts | 350° |
| 2026-04-28 17:07 | 77.60868 | 13.97130 | 15585 ft | 363 kts | 350° |
| 2026-04-28 17:08 | 77.63349 | 13.95168 | 15055 ft | 360 kts | 350° |
| 2026-04-28 17:08 | 77.65811 | 13.93213 | 14526 ft | 357 kts | 350° |
| 2026-04-28 17:08 | 77.68251 | 13.91268 | 14004 ft | 354 kts | 350° |
| 2026-04-28 17:08 | 77.70671 | 13.89331 | 13485 ft | 351 kts | 350° |
| 2026-04-28 17:09 | 77.73073 | 13.87401 | 12972 ft | 348 kts | 350° |
| 2026-04-28 17:09 | 77.74651 | 13.86129 | 12632 ft | 347 kts | 350° |
| 2026-04-28 17:09 | 77.77019 | 13.84214 | 12091 ft | 345 kts | 350° |
| 2026-04-28 17:09 | 77.79388 | 13.82291 | 11478 ft | 345 kts | 350° |
| 2026-04-28 17:10 | 77.81754 | 13.80364 | 10930 ft | 343 kts | 350° |
| 2026-04-28 17:10 | 77.84097 | 13.78446 | 10433 ft | 340 kts | 350° |
| 2026-04-28 17:10 | 77.86392 | 13.76561 | 10231 ft | 328 kts | 349° |
| 2026-04-28 17:10 | 77.88594 | 13.74747 | 10097 ft | 314 kts | 349° |
| 2026-04-28 17:11 | 77.90699 | 13.73007 | 9975 ft | 301 kts | 349° |
| 2026-04-28 17:11 | 77.92723 | 13.71327 | 9759 ft | 292 kts | 349° |
| 2026-04-28 17:11 | 77.94718 | 13.69665 | 9366 ft | 290 kts | 349° |
| 2026-04-28 17:11 | 77.96701 | 13.68004 | 8970 ft | 288 kts | 349° |
| 2026-04-28 17:12 | 77.98674 | 13.66351 | 8553 ft | 287 kts | 349° |
| 2026-04-28 17:12 | 78.00631 | 13.64706 | 8172 ft | 285 kts | 349° |
| 2026-04-28 17:12 | 78.02580 | 13.63063 | 7774 ft | 283 kts | 349° |
| 2026-04-28 17:12 | 78.04520 | 13.61458 | 7389 ft | 282 kts | 352° |
| 2026-04-28 17:13 | 78.06464 | 13.61917 | 6986 ft | 281 kts | 14° |
| 2026-04-28 17:13 | 78.08223 | 13.65620 | 6810 ft | 271 kts | 30° |
| 2026-04-28 17:13 | 78.09826 | 13.69983 | 6702 ft | 259 kts | 29° |
| 2026-04-28 17:13 | 78.11366 | 13.74119 | 6606 ft | 247 kts | 28° |
| 2026-04-28 17:14 | 78.12838 | 13.78069 | 6512 ft | 236 kts | 29° |
| 2026-04-28 17:14 | 78.14247 | 13.81863 | 6407 ft | 226 kts | 29° |
| 2026-04-28 17:14 | 78.15579 | 13.85468 | 6285 ft | 213 kts | 29° |
| 2026-04-28 17:14 | 78.16844 | 13.88906 | 6021 ft | 206 kts | 29° |
| 2026-04-28 17:15 | 78.18090 | 13.92298 | 5644 ft | 205 kts | 29° |
| 2026-04-28 17:15 | 78.19329 | 13.95684 | 5276 ft | 204 kts | 29° |
| 2026-04-28 17:15 | 78.20552 | 13.99034 | 4913 ft | 203 kts | 29° |
| 2026-04-28 17:15 | 78.21771 | 14.02379 | 4553 ft | 202 kts | 29° |
| 2026-04-28 17:16 | 78.22991 | 14.05743 | 4193 ft | 200 kts | 30° |
| 2026-04-28 17:16 | 78.23958 | 14.10554 | 3848 ft | 195 kts | 68° |
| 2026-04-28 17:16 | 78.24235 | 14.16652 | 3762 ft | 176 kts | 82° |
| 2026-04-28 17:16 | 78.24425 | 14.22485 | 3482 ft | 172 kts | 81° |
| 2026-04-28 17:17 | 78.24616 | 14.28185 | 3199 ft | 170 kts | 81° |
| 2026-04-28 17:17 | 78.24808 | 14.33917 | 2879 ft | 170 kts | 81° |
| 2026-04-28 17:17 | 78.25000 | 14.39633 | 2569 ft | 170 kts | 81° |
| 2026-04-28 17:17 | 78.25191 | 14.45334 | 2267 ft | 169 kts | 81° |
| 2026-04-28 17:18 | 78.25379 | 14.51012 | 1968 ft | 168 kts | 81° |
| 2026-04-28 17:18 | 78.25566 | 14.56676 | 1667 ft | 167 kts | 81° |
| 2026-04-28 17:18 | 78.25749 | 14.62296 | 1365 ft | 167 kts | 81° |
| 2026-04-28 17:18 | 78.25931 | 14.67890 | 1077 ft | 164 kts | 82° |
| 2026-04-28 17:19 | 78.26108 | 14.73355 | 1010 ft | 168 kts | 82° |
| 2026-04-28 17:19 | 78.26285 | 14.78898 | 1003 ft | 158 kts | 82° |
| 2026-04-28 17:19 | 78.26454 | 14.84158 | 1000 ft | 157 kts | 82° |
| 2026-04-28 17:19 | 78.26621 | 14.89434 | 1000 ft | 156 kts | 82° |
| 2026-04-28 17:20 | 78.26786 | 14.94694 | 1001 ft | 156 kts | 82° |
| 2026-04-28 17:20 | 78.26895 | 14.98179 | 1000 ft | 156 kts | 82° |
| 2026-04-28 17:20 | 78.26926 | 15.04642 | 996 ft | 134 kts | 102° |
| 2026-04-28 17:20 | 78.26674 | 15.09089 | 888 ft | 135 kts | 107° |
| 2026-04-28 17:21 | 78.26428 | 15.13487 | 752 ft | 133 kts | 106° |
| 2026-04-28 17:21 | 78.26190 | 15.17866 | 630 ft | 133 kts | 106° |
| 2026-04-28 17:21 | 78.25952 | 15.22250 | 506 ft | 133 kts | 106° |
| 2026-04-28 17:22 | 78.25476 | 15.30961 | 294 ft | 131 kts | 106° |
| 2026-04-28 17:22 | 78.25240 | 15.35303 | 279 ft | 132 kts | 104° |
| 2026-04-28 17:22 | 78.24977 | 15.39646 | 208 ft | 133 kts | 103° |
| 2026-04-28 17:23 | 78.24602 | 15.46648 | 91 ft | 38 kts | 106° |
| 2026-04-28 17:23 | 78.24568 | 15.47310 | 87 ft | 20 kts | 103° |
| 2026-04-28 17:23 | 78.24540 | 15.47883 | 91 ft | 9 kts | 99° |
| 2026-04-28 17:23 | 78.24555 | 15.48099 | 94 ft | 8 kts | 40° |
| 2026-04-28 17:24 | 78.24588 | 15.48471 | 88 ft | 15 kts | 84° |
| 2026-04-28 17:24 | 78.24592 | 15.48622 | 90 ft | 0 kts | 74° |
| 2026-04-28 17:25 | 78.24593 | 15.48629 | 90 ft | 2 kts | 74° |
| 2026-04-28 17:25 | 78.24642 | 15.48816 | 93 ft | 4 kts | 29° |
| 2026-04-28 17:25 | 78.24646 | 15.48977 | 92 ft | 7 kts | 104° |
| 2026-04-28 17:26 | 78.24629 | 15.49268 | 89 ft | 11 kts | 102° |
| 2026-04-28 17:26 | 78.24622 | 15.49407 | 90 ft | 4 kts | 106° |
| 2026-04-28 17:26 | 78.24616 | 15.49513 | 90 ft | 3 kts | 106° |
| 2026-04-28 17:26 | 78.24614 | 15.49536 | 89 ft | 0 kts | 106° |